Time;durP1;ratioP1;P1;durP2;ratioP2;P2;SDS_P1;SDS_P2;PMS_P1;PMS_P2;Temp;Humidity;BMP_temperature;BMP_pressure;BME280_temperature;BME280_humidity;BME280_pressure;Samples;Min_cycle;Max_cycle;Signal;HPM_P1;HPM_P2
2022/10/31 00:00:41;;;;;;;;;;;;;;;13.18;92.75;102071.13;4997954;28;19945;-72
2022/10/31 00:03:06;;;;;;;;;;;;;;;13.18;92.74;102073.75;4994351;28;19918;-73
2022/10/31 00:05:32;;;;;;;;;;;;;;;13.17;92.50;102060.66;4995963;28;19937;-72
2022/10/31 00:07:57;;;;;;;;;;;;;;;13.16;92.74;102066.84;5006501;28;20109;-72
2022/10/31 00:10:22;;;;;;;;;;;;;;;13.15;92.89;102073.88;4993929;28;19917;-72
2022/10/31 00:12:47;;;;;;;;;;;;;;;13.14;92.60;102069.53;4997976;28;19921;-72
2022/10/31 00:15:13;;;;;;;;;;;;;;;13.14;92.63;102077.41;4992653;28;19933;-72
2022/10/31 00:17:38;;;;;;;;;;;;;;;13.13;92.79;102078.31;4988532;28;19948;-72
2022/10/31 00:20:03;;;;;;;;;;;;;;;13.12;92.76;102079.22;4988546;28;19913;-72
2022/10/31 00:22:29;;;;;;;;;;;;;;;13.11;93.03;102072.22;4969392;28;19958;-72
2022/10/31 00:24:54;;;;;;;;;;;;;;;13.11;92.88;102082.75;4979344;28;19929;-72
2022/10/31 00:27:19;;;;;;;;;;;;;;;13.10;93.06;102083.69;4962505;28;19930;-72
2022/10/31 00:29:44;;;;;;;;;;;;;;;13.10;92.79;102080.16;4961952;28;19918;-72
2022/10/31 00:32:09;;;;;;;;;;;;;;;13.10;92.98;102085.44;4962075;28;20209;-72
2022/10/31 00:34:35;;;;;;;;;;;;;;;13.07;93.21;102083.78;4979871;28;19933;-72
2022/10/31 00:37:00;;;;;;;;;;;;;;;13.07;93.02;102081.13;4979832;28;20216;-72
2022/10/31 00:39:25;;;;;;;;;;;;;;;13.06;93.28;102084.66;4985909;28;19953;-72
2022/10/31 00:41:50;;;;;;;;;;;;;;;13.05;93.16;102089.06;4988737;28;19920;-72
2022/10/31 00:44:16;;;;;;;;;;;;;;;13.05;92.88;102088.22;4984123;28;19933;-72
2022/10/31 00:46:41;;;;;;;;;;;;;;;13.04;93.01;102089.13;4979480;28;19949;-72
2022/10/31 00:49:06;;;;;;;;;;;;;;;13.02;93.01;102089.19;4961789;28;19914;-73
2022/10/31 00:51:31;;;;;;;;;;;;;;;13.01;92.86;102087.44;4979049;28;19994;-72
2022/10/31 00:53:57;;;;;;;;;;;;;;;13.01;93.20;102083.97;4979096;28;19997;-72
2022/10/31 00:56:22;;;;;;;;;;;;;;;13.00;92.92;102090.97;4979120;28;19922;-72
2022/10/31 00:58:47;;;;;;;;;;;;;;;13.00;93.09;102082.25;4991619;28;19917;-72
2022/10/31 01:01:12;;;;;;;;;;;;;;;12.99;93.17;102075.28;4998977;28;19984;-72
2022/10/31 01:03:38;;;;;;;;;;;;;;;12.98;93.01;102055.13;4978771;28;20107;-72
2022/10/31 01:06:11;;;;;;;;;;;;;;;12.96;92.94;102060.44;4979332;28;19910;-72
2022/10/31 01:08:36;;;;;;;;;;;;;;;12.96;92.92;102065.69;4977778;28;19912;-72
2022/10/31 01:11:07;;;;;;;;;;;;;;;12.94;93.30;102070.16;4979522;28;19945;-72
2022/10/31 01:13:32;;;;;;;;;;;;;;;12.94;92.86;102070.16;4979685;28;19918;-72
2022/10/31 01:15:58;;;;;;;;;;;;;;;12.93;93.09;102068.41;4980964;28;19928;-72
2022/10/31 01:18:23;;;;;;;;;;;;;;;12.92;93.01;102068.47;4998605;28;19918;-72
2022/10/31 01:20:58;;;;;;;;;;;;;;;12.91;93.16;102066.75;4998772;28;20105;-72
2022/10/31 01:23:24;;;;;;;;;;;;;;;12.90;92.99;102062.38;4998477;28;19913;-72
2022/10/31 01:25:49;;;;;;;;;;;;;;;12.87;93.14;102064.19;4998387;28;20137;-72
2022/10/31 01:28:14;;;;;;;;;;;;;;;12.87;92.81;102061.56;4995787;28;19922;-72
2022/10/31 01:30:40;;;;;;;;;;;;;;;12.86;93.21;102058.97;4961337;28;19956;-72
2022/10/31 01:33:05;;;;;;;;;;;;;;;12.85;93.34;102057.28;4978841;28;19922;-72
2022/10/31 01:35:30;;;;;;;;;;;;;;;12.84;93.00;102047.66;4977519;28;20114;-72
2022/10/31 01:37:55;;;;;;;;;;;;;;;12.83;93.21;102056.47;4978503;28;20161;-72
2022/10/31 01:40:21;;;;;;;;;;;;;;;12.82;93.12;102055.63;4978489;28;20194;-72
2022/10/31 01:42:46;;;;;;;;;;;;;;;12.81;93.37;102056.53;4978303;28;19914;-72
2022/10/31 01:45:13;;;;;;;;;;;;;;;12.80;93.37;102051.31;4961118;28;20168;-72
2022/10/31 01:47:46;;;;;;;;;;;;;;;12.79;93.31;102045.19;4978264;28;19957;-72
2022/10/31 01:50:14;;;;;;;;;;;;;;;12.77;93.35;102039.13;4978273;28;20225;-73
2022/10/31 01:52:42;;;;;;;;;;;;;;;12.78;93.16;102042.59;4977442;28;19922;-72
2022/10/31 01:55:11;;;;;;;;;;;;;;;12.75;93.09;102038.31;4978261;28;19929;-72
2022/10/31 01:57:38;;;;;;;;;;;;;;;12.75;93.20;102046.19;4982352;28;19909;-72
2022/10/31 02:00:06;;;;;;;;;;;;;;;12.74;93.21;102035.72;4998905;28;20158;-72
2022/10/31 02:02:32;;;;;;;;;;;;;;;12.73;93.38;102036.63;4987116;28;19913;-72
2022/10/31 02:04:59;;;;;;;;;;;;;;;12.72;93.01;102034.91;4978435;28;19917;-72
2022/10/31 02:07:31;;;;;;;;;;;;;;;12.70;93.23;102037.59;4978831;28;19938;-72
2022/10/31 02:09:57;;;;;;;;;;;;;;;12.69;93.33;102033.22;4977256;28;19913;-72
2022/10/31 02:12:24;;;;;;;;;;;;;;;12.67;93.26;102033.28;4977618;28;20082;-72
2022/10/31 02:14:49;;;;;;;;;;;;;;;12.66;93.33;102038.56;4990028;28;19925;-72
2022/10/31 02:17:14;;;;;;;;;;;;;;;12.65;93.10;102039.50;4997996;28;19917;-72
2022/10/31 02:19:51;;;;;;;;;;;;;;;12.64;93.26;102043.00;4980686;28;19917;-72
2022/10/31 02:22:29;;;;;;;;;;;;;;;12.63;93.21;102044.78;4997769;28;19925;-72
2022/10/31 02:25:10;;;;;;;;;;;;;;;12.60;93.19;102042.25;4997627;28;19949;-72
2022/10/31 02:27:53;;;;;;;;;;;;;;;12.60;93.26;102038.75;4998525;28;20029;-72
2022/10/31 02:30:23;;;;;;;;;;;;;;;12.59;93.28;102039.69;4998353;28;19905;-73
2022/10/31 02:32:54;;;;;;;;;;;;;;;12.59;93.02;102047.56;4996300;28;19914;-72
2022/10/31 02:35:22;;;;;;;;;;;;;;;12.57;92.90;102044.09;4978635;28;19914;-72
2022/10/31 02:37:51;;;;;;;;;;;;;;;12.56;93.31;102040.63;4978020;28;20129;-72
2022/10/31 02:40:16;;;;;;;;;;;;;;;12.55;93.12;102040.66;4978622;28;20096;-72
2022/10/31 02:42:50;;;;;;;;;;;;;;;12.54;93.16;102042.44;4978177;28;19914;-72
2022/10/31 02:45:34;;;;;;;;;;;;;;;12.53;93.37;102047.72;4978357;28;19914;-72
2022/10/31 02:48:01;;;;;;;;;;;;;;;12.51;93.00;102041.66;4978201;28;20174;-72
2022/10/31 02:50:30;;;;;;;;;;;;;;;12.49;93.31;102039.94;4982854;28;19949;-72
2022/10/31 02:52:55;;;;;;;;;;;;;;;12.49;93.28;102036.44;4997618;28;20233;-72
2022/10/31 02:55:27;;;;;;;;;;;;;;;12.46;93.19;102037.41;4997342;28;19968;-72
2022/10/31 02:57:54;;;;;;;;;;;;;;;12.44;92.90;102033.97;4997526;28;20159;-72
2022/10/31 03:00:19;;;;;;;;;;;;;;;12.43;93.18;102037.50;4997587;28;20129;-72
2022/10/31 03:02:54;;;;;;;;;;;;;;;12.42;93.14;102038.38;4996524;28;19912;-72
2022/10/31 03:05:19;;;;;;;;;;;;;;;12.40;93.11;102040.22;4981547;28;19914;-72
2022/10/31 03:07:56;;;;;;;;;;;;;;;12.38;93.11;102038.53;4981157;28;20385;-72
2022/10/31 03:10:21;;;;;;;;;;;;;;;12.37;93.09;102031.56;4981907;28;19949;-74
2022/10/31 03:12:59;;;;;;;;;;;;;;;12.36;93.04;102035.09;4980815;28;19905;-74
2022/10/31 03:15:27;;;;;;;;;;;;;;;12.34;93.02;102036.91;4975688;28;19926;-74
2022/10/31 03:18:01;;;;;;;;;;;;;;;12.32;92.74;102036.97;4961349;29;19922;-74
2022/10/31 03:20:30;;;;;;;;;;;;;;;12.30;93.00;102033.53;4961477;29;19914;-74
2022/10/31 03:22:56;;;;;;;;;;;;;;;12.29;92.88;102039.66;4961498;29;19985;-75
2022/10/31 03:25:22;;;;;;;;;;;;;;;12.28;92.64;102040.59;4961904;29;19946;-75
2022/10/31 03:27:49;;;;;;;;;;;;;;;12.25;92.81;102036.25;4961489;29;20251;-75
2022/10/31 03:30:15;;;;;;;;;;;;;;;12.23;92.72;102031.97;4961543;29;19915;-75
2022/10/31 03:32:47;;;;;;;;;;;;;;;12.22;92.46;102040.75;4961531;28;19914;-75
2022/10/31 03:35:14;;;;;;;;;;;;;;;12.21;92.57;102036.41;4980707;28;20272;-75
2022/10/31 03:37:40;;;;;;;;;;;;;;;12.18;92.69;102042.59;4979421;28;20319;-75
2022/10/31 03:40:07;;;;;;;;;;;;;;;12.16;92.46;102039.16;4980695;28;19920;-75
2022/10/31 03:42:34;;;;;;;;;;;;;;;12.15;92.72;102036.56;4980494;28;19997;-75
2022/10/31 03:45:04;;;;;;;;;;;;;;;12.12;92.67;102027.03;4962902;28;19913;-75
2022/10/31 03:47:30;;;;;;;;;;;;;;;12.10;92.49;102024.44;4967942;28;19918;-75
2022/10/31 03:49:55;;;;;;;;;;;;;;;12.09;92.50;102033.19;4980396;28;19925;-75
2022/10/31 03:52:27;;;;;;;;;;;;;;;12.07;92.62;102035.00;4980074;28;19961;-75
2022/10/31 03:54:54;;;;;;;;;;;;;;;12.06;92.26;102035.94;4980092;28;19929;-74
2022/10/31 03:57:27;;;;;;;;;;;;;;;12.05;92.60;102035.97;4980483;28;19932;-75
2022/10/31 04:00:12;;;;;;;;;;;;;;;12.03;92.31;102028.13;4979613;28;19925;-75
2022/10/31 04:02:40;;;;;;;;;;;;;;;12.01;92.43;102029.94;4979847;28;19941;-74
2022/10/31 04:05:06;;;;;;;;;;;;;;;12.02;92.53;102033.41;4980515;28;19992;-75
2022/10/31 04:07:35;;;;;;;;;;;;;;;12.00;92.63;102027.34;4994871;28;19961;-75
2022/10/31 04:10:04;;;;;;;;;;;;;;;11.99;92.63;102030.88;4979687;28;19918;-75
2022/10/31 04:12:30;;;;;;;;;;;;;;;11.98;92.70;102026.53;4979990;28;20271;-75
2022/10/31 04:14:57;;;;;;;;;;;;;;;11.96;92.34;102029.19;4987286;28;20412;-75
2022/10/31 04:17:23;;;;;;;;;;;;;;;11.95;92.61;102030.13;4999100;28;19948;-75
2022/10/31 04:19:48;;;;;;;;;;;;;;;11.94;92.73;102038.88;4998348;28;19953;-75
2022/10/31 04:22:14;;;;;;;;;;;;;;;11.93;92.58;102034.53;4982763;28;19909;-75
2022/10/31 04:24:39;;;;;;;;;;;;;;;11.92;92.68;102035.44;4990784;28;19905;-75
2022/10/31 04:27:04;;;;;;;;;;;;;;;11.91;92.51;102036.34;4997836;28;19982;-75
2022/10/31 04:29:30;;;;;;;;;;;;;;;11.90;92.68;102037.25;4997431;28;19955;-75
2022/10/31 04:31:55;;;;;;;;;;;;;;;11.89;92.69;102035.50;4999126;28;19980;-75
2022/10/31 04:34:21;;;;;;;;;;;;;;;11.88;92.71;102032.00;4967783;28;20292;-75
2022/10/31 04:36:46;;;;;;;;;;;;;;;11.87;92.71;102032.91;4979536;28;19922;-75
2022/10/31 04:39:11;;;;;;;;;;;;;;;11.87;92.71;102034.69;4981257;28;20188;-75
2022/10/31 04:41:36;;;;;;;;;;;;;;;11.85;92.56;102029.47;4998766;28;19989;-75
2022/10/31 04:44:02;;;;;;;;;;;;;;;11.85;92.81;102031.22;4992533;28;20212;-75
2022/10/31 04:46:27;;;;;;;;;;;;;;;11.83;92.85;102031.28;4979940;28;20568;-75
2022/10/31 04:48:52;;;;;;;;;;;;;;;11.83;92.64;102035.66;4979351;28;20328;-75
2022/10/31 04:51:17;;;;;;;;;;;;;;;11.83;92.87;102033.03;4979743;28;19949;-75
2022/10/31 04:53:43;;;;;;;;;;;;;;;11.81;92.91;102029.59;4979311;28;20077;-75
2022/10/31 04:56:08;;;;;;;;;;;;;;;11.80;92.56;102027.88;4985745;28;20015;-75
2022/10/31 04:58:33;;;;;;;;;;;;;;;11.78;92.64;102024.44;5014287;28;19925;-75
2022/10/31 05:00:58;;;;;;;;;;;;;;;11.77;92.61;102026.19;4999128;28;19985;-75
2022/10/31 05:03:24;;;;;;;;;;;;;;;11.77;92.64;102020.06;5007585;28;19909;-75
2022/10/31 05:05:49;;;;;;;;;;;;;;;11.75;92.92;102024.50;4979177;28;19973;-75
2022/10/31 05:08:14;;;;;;;;;;;;;;;11.75;92.77;102024.50;4979543;28;20247;-75
2022/10/31 05:10:40;;;;;;;;;;;;;;;11.72;92.78;102026.31;4979260;28;19950;-75
2022/10/31 05:13:05;;;;;;;;;;;;;;;11.72;92.86;102025.44;4961869;28;20250;-74
2022/10/31 05:15:31;;;;;;;;;;;;;;;11.71;92.60;102019.34;4978902;28;20133;-75
2022/10/31 05:17:56;;;;;;;;;;;;;;;11.70;93.00;102011.50;4961014;28;20157;-75
2022/10/31 05:20:23;;;;;;;;;;;;;;;11.69;93.02;102008.00;4978621;28;19925;-75
2022/10/31 05:22:50;;;;;;;;;;;;;;;11.69;93.04;102008.00;4961533;28;20366;-75
2022/10/31 05:25:16;;;;;;;;;;;;;;;11.69;93.11;102007.16;4978839;28;20486;-75
2022/10/31 05:27:42;;;;;;;;;;;;;;;11.68;92.91;102002.81;4978148;28;19949;-75
2022/10/31 05:30:08;;;;;;;;;;;;;;;11.67;93.10;101999.31;4978707;28;19949;-75
2022/10/31 05:32:41;;;;;;;;;;;;;;;11.66;93.31;101997.63;4978711;28;20166;-75
2022/10/31 05:35:08;;;;;;;;;;;;;;;11.66;93.15;101996.72;4957124;28;19929;-75
2022/10/31 05:37:33;;;;;;;;;;;;;;;11.64;93.21;101999.44;4978640;28;20193;-75
2022/10/31 05:39:59;;;;;;;;;;;;;;;11.64;93.18;101998.53;4960922;28;20260;-75
2022/10/31 05:42:24;;;;;;;;;;;;;;;11.63;93.21;102000.31;4978602;28;19989;-74
2022/10/31 05:44:49;;;;;;;;;;;;;;;11.63;93.33;102004.72;4978443;28;20271;-75
2022/10/31 05:47:14;;;;;;;;;;;;;;;11.63;93.21;102007.34;4978535;28;19972;-75
2022/10/31 05:49:40;;;;;;;;;;;;;;;11.62;93.17;101997.72;4978241;28;19922;-74
2022/10/31 05:52:05;;;;;;;;;;;;;;;11.61;93.50;102007.38;4961197;28;20008;-75
2022/10/31 05:54:30;;;;;;;;;;;;;;;11.60;93.23;102003.00;4978289;28;19925;-75
2022/10/31 05:56:55;;;;;;;;;;;;;;;11.60;93.28;102004.78;4978200;28;20009;-75
2022/10/31 05:59:21;;;;;;;;;;;;;;;11.58;93.28;102003.97;4978057;28;19961;-75
2022/10/31 06:01:46;;;;;;;;;;;;;;;11.58;93.41;102001.34;4977965;28;19950;-75
2022/10/31 06:04:11;;;;;;;;;;;;;;;11.57;93.44;102004.84;4978326;28;19914;-75
2022/10/31 06:06:36;;;;;;;;;;;;;;;11.55;93.43;101996.16;4978436;28;20205;-75
2022/10/31 06:09:01;;;;;;;;;;;;;;;11.55;93.46;101990.91;4961186;28;19914;-74
2022/10/31 06:11:27;;;;;;;;;;;;;;;11.53;93.35;101999.72;4978505;28;19962;-75
2022/10/31 06:13:52;;;;;;;;;;;;;;;11.52;93.46;102002.38;4977075;28;19914;-75
2022/10/31 06:16:17;;;;;;;;;;;;;;;11.50;93.42;101991.91;4997128;28;19937;-75
2022/10/31 06:18:42;;;;;;;;;;;;;;;11.50;93.25;101994.53;4998072;28;19917;-75
2022/10/31 06:21:08;;;;;;;;;;;;;;;11.50;93.50;101993.69;4997860;28;19922;-75
2022/10/31 06:23:33;;;;;;;;;;;;;;;11.50;93.50;101996.31;4998179;28;20133;-75
2022/10/31 06:25:58;;;;;;;;;;;;;;;11.49;93.86;102002.44;4980242;28;19910;-75
2022/10/31 06:28:23;;;;;;;;;;;;;;;11.49;93.61;102010.31;4998093;28;19952;-75
2022/10/31 06:30:49;;;;;;;;;;;;;;;11.48;93.78;102013.84;4979798;28;19914;-75
2022/10/31 06:33:14;;;;;;;;;;;;;;;11.47;93.51;102012.97;4997566;28;20017;-75
2022/10/31 06:35:44;;;;;;;;;;;;;;;11.45;93.65;102006.03;5012783;28;19922;-75
2022/10/31 06:38:09;;;;;;;;;;;;;;;11.44;93.66;101997.31;4999084;28;20100;-75
2022/10/31 06:40:34;;;;;;;;;;;;;;;11.43;93.42;102000.84;4984002;28;19941;-75
2022/10/31 06:43:00;;;;;;;;;;;;;;;11.41;93.64;101999.16;5019690;28;19932;-75
2022/10/31 06:45:26;;;;;;;;;;;;;;;11.40;93.57;102005.28;5000144;28;20153;-75
2022/10/31 06:47:55;;;;;;;;;;;;;;;11.39;93.42;102004.44;5003037;28;19925;-75
2022/10/31 06:50:20;;;;;;;;;;;;;;;11.38;93.38;102007.94;5003251;28;20125;-75
2022/10/31 06:52:52;;;;;;;;;;;;;;;11.38;93.38;102007.94;5000697;28;19917;-75
2022/10/31 06:55:18;;;;;;;;;;;;;;;11.37;93.52;102003.63;4996909;28;19917;-75
2022/10/31 06:57:49;;;;;;;;;;;;;;;11.36;93.45;102017.63;5000918;28;19940;-75
2022/10/31 07:00:14;;;;;;;;;;;;;;;11.34;93.62;102012.41;5016581;28;20171;-75
2022/10/31 07:02:39;;;;;;;;;;;;;;;11.34;93.70;102011.56;5000859;28;19909;-75
2022/10/31 07:05:05;;;;;;;;;;;;;;;11.33;93.70;102010.72;5001223;28;20227;-75
2022/10/31 07:07:30;;;;;;;;;;;;;;;11.34;93.73;102014.19;5000899;28;20208;-75
2022/10/31 07:09:55;;;;;;;;;;;;;;;11.33;93.65;102017.69;5000850;28;19917;-75
2022/10/31 07:12:20;;;;;;;;;;;;;;;11.33;93.82;102017.69;5000483;28;19924;-75
2022/10/31 07:14:46;;;;;;;;;;;;;;;11.33;93.98;102023.81;4997437;28;20114;-75
2022/10/31 07:17:11;;;;;;;;;;;;;;;11.33;94.01;102020.31;4989993;28;19988;-75
2022/10/31 07:19:36;;;;;;;;;;;;;;;11.32;94.32;102023.84;4992836;28;19918;-75
2022/10/31 07:22:01;;;;;;;;;;;;;;;11.33;94.44;102028.19;4996006;28;19924;-75
2022/10/31 07:24:32;;;;;;;;;;;;;;;11.32;94.63;102027.34;4974523;28;19924;-75
2022/10/31 07:26:57;;;;;;;;;;;;;;;11.34;94.62;102024.66;4972197;28;19928;-75
2022/10/31 07:29:23;;;;;;;;;;;;;;;11.33;94.53;102021.19;4989677;28;19922;-75
2022/10/31 07:31:48;;;;;;;;;;;;;;;11.34;94.46;102032.53;4994076;28;20037;-75
2022/10/31 07:34:14;;;;;;;;;;;;;;;11.34;94.74;102028.16;4955793;28;19925;-75
2022/10/31 07:36:39;;;;;;;;;;;;;;;11.34;94.86;102029.91;4990014;28;19922;-75
2022/10/31 07:39:05;;;;;;;;;;;;;;;11.34;94.67;102032.53;4990811;28;20082;-75
2022/10/31 07:41:30;;;;;;;;;;;;;;;11.35;95.09;102023.78;4972988;28;19984;-75
2022/10/31 07:43:55;;;;;;;;;;;;;;;11.35;95.18;102026.41;4994080;28;19928;-75
2022/10/31 07:46:21;;;;;;;;;;;;;;;11.36;95.15;102024.63;4984669;28;19920;-75
2022/10/31 07:48:47;;;;;;;;;;;;;;;11.37;95.16;102031.59;4981917;28;20086;-75
2022/10/31 07:51:12;;;;;;;;;;;;;;;11.37;95.23;102026.34;4960487;28;19964;-75
2022/10/31 07:53:37;;;;;;;;;;;;;;;11.37;95.24;102018.47;4976407;28;20197;-75
2022/10/31 07:56:02;;;;;;;;;;;;;;;11.38;95.41;102017.59;4985421;28;19972;-75
2022/10/31 07:58:28;;;;;;;;;;;;;;;11.37;95.46;102016.75;4979261;28;19929;-75
2022/10/31 08:00:53;;;;;;;;;;;;;;;11.37;95.76;102014.13;4996040;28;20205;-75
2022/10/31 08:03:19;;;;;;;;;;;;;;;11.37;95.86;102021.97;4979074;28;20029;-74
2022/10/31 08:05:47;;;;;;;;;;;;;;;11.39;95.51;102017.56;4978530;28;19918;-75
2022/10/31 08:08:13;;;;;;;;;;;;;;;11.39;95.92;102009.69;4984847;28;19941;-75
2022/10/31 08:10:38;;;;;;;;;;;;;;;11.38;96.04;102010.56;4986165;28;20389;-75
2022/10/31 08:13:08;;;;;;;;;;;;;;;11.40;95.89;102016.63;4978733;28;19918;-75
2022/10/31 08:15:36;;;;;;;;;;;;;;;11.41;95.98;102012.28;4980236;28;20225;-75
2022/10/31 08:18:02;;;;;;;;;;;;;;;11.41;96.12;102005.25;4970768;28;19918;-75
2022/10/31 08:20:27;;;;;;;;;;;;;;;11.41;96.16;102018.38;4987485;28;19916;-75
2022/10/31 08:22:56;;;;;;;;;;;;;;;11.42;96.32;102017.47;4986868;28;20336;-75
2022/10/31 08:25:21;;;;;;;;;;;;;;;11.42;96.68;102020.09;4976389;28;20182;-75
2022/10/31 08:27:53;;;;;;;;;;;;;;;11.43;96.93;102024.44;4979156;28;19921;-75
2022/10/31 08:30:19;;;;;;;;;;;;;;;11.44;96.89;102017.41;4987241;28;19910;-75
2022/10/31 08:32:44;;;;;;;;;;;;;;;11.44;96.91;102020.94;4990900;28;19952;-75
2022/10/31 08:35:10;;;;;;;;;;;;;;;11.46;97.18;102026.09;4986873;28;19996;-75
2022/10/31 08:37:35;;;;;;;;;;;;;;;11.46;97.30;102019.13;4982449;28;19989;-75
2022/10/31 08:40:00;;;;;;;;;;;;;;;11.48;97.48;102016.47;4983610;28;19921;-75
2022/10/31 08:42:25;;;;;;;;;;;;;;;11.49;97.51;102018.16;4986002;28;19910;-75
2022/10/31 08:44:51;;;;;;;;;;;;;;;11.49;97.88;102010.31;4976624;28;19921;-75
2022/10/31 08:47:16;;;;;;;;;;;;;;;11.50;97.98;102012.03;4983679;28;19916;-75
2022/10/31 08:49:41;;;;;;;;;;;;;;;11.51;98.06;102008.50;4976937;28;19988;-75
2022/10/31 08:52:06;;;;;;;;;;;;;;;11.52;98.20;102007.59;4985797;28;19929;-75
2022/10/31 08:54:32;;;;;;;;;;;;;;;11.53;98.17;102004.06;4982755;28;19914;-75
2022/10/31 08:56:57;;;;;;;;;;;;;;;11.53;98.37;101999.72;4976210;28;19921;-75
2022/10/31 08:59:22;;;;;;;;;;;;;;;11.56;98.55;101997.91;4981041;28;19988;-75
2022/10/31 09:01:47;;;;;;;;;;;;;;;11.57;98.40;101996.97;4978652;28;19918;-75
2022/10/31 09:04:13;;;;;;;;;;;;;;;11.58;98.66;101993.47;4943496;28;19992;-75
2022/10/31 09:06:38;;;;;;;;;;;;;;;11.58;99.06;101989.06;4957031;28;19929;-75
2022/10/31 09:09:03;;;;;;;;;;;;;;;11.61;98.88;101982.91;4981817;28;20144;-75
2022/10/31 09:11:30;;;;;;;;;;;;;;;11.62;99.35;101984.59;4943867;28;20229;-75
2022/10/31 09:13:55;;;;;;;;;;;;;;;11.64;99.72;101978.44;4984408;28;20220;-75
2022/10/31 09:16:20;;;;;;;;;;;;;;;11.66;99.71;101974.00;4994588;28;19969;-75
2022/10/31 09:18:46;;;;;;;;;;;;;;;11.67;99.97;101970.44;4989868;28;20125;-75
2022/10/31 09:21:11;;;;;;;;;;;;;;;11.71;100.00;101974.75;4999597;28;20193;-75
2022/10/31 09:23:36;;;;;;;;;;;;;;;11.73;100.00;101961.56;4996138;28;19922;-75
2022/10/31 09:26:02;;;;;;;;;;;;;;;11.74;100.00;101958.03;5005970;28;20240;-75
2022/10/31 09:28:27;;;;;;;;;;;;;;;11.76;100.00;101945.72;4980227;28;20211;-75
2022/10/31 09:30:53;;;;;;;;;;;;;;;11.77;100.00;101949.19;5006211;28;20023;-75
2022/10/31 09:33:19;;;;;;;;;;;;;;;11.79;100.00;101953.53;4999683;28;19917;-75
2022/10/31 09:35:44;;;;;;;;;;;;;;;11.81;100.00;101950.88;5001161;28;19926;-75
2022/10/31 09:38:10;;;;;;;;;;;;;;;11.83;100.00;101946.44;4997706;28;19916;-75
2022/10/31 09:40:37;;;;;;;;;;;;;;;11.85;100.00;101924.47;5003663;28;20117;-75
2022/10/31 09:43:14;;;;;;;;;;;;;;;11.88;100.00;101939.28;5004310;28;19914;-75
2022/10/31 09:45:59;;;;;;;;;;;;;;;11.91;100.00;101933.97;4993934;28;20012;-75
2022/10/31 09:48:33;;;;;;;;;;;;;;;11.95;100.00;101934.72;5003343;28;19913;-75
2022/10/31 09:51:01;;;;;;;;;;;;;;;11.97;100.00;101930.28;5001635;28;19918;-75
2022/10/31 09:53:32;;;;;;;;;;;;;;;12.01;100.00;101926.69;5003681;28;20033;-75
2022/10/31 09:55:58;;;;;;;;;;;;;;;12.03;100.00;101920.47;5001174;28;19996;-75
2022/10/31 09:58:25;;;;;;;;;;;;;;;12.07;100.00;101913.38;4999211;28;20205;-75
2022/10/31 10:00:51;;;;;;;;;;;;;;;12.12;100.00;101915.88;5004243;28;19909;-75
2022/10/31 10:03:38;;;;;;;;;;;;;;;12.14;100.00;101906.19;5012683;28;19917;-75
2022/10/31 10:06:11;;;;;;;;;;;;;;;12.18;100.00;101910.44;5000723;28;20307;-75
2022/10/31 10:08:37;;;;;;;;;;;;;;;12.20;100.00;101906.00;4991530;28;20079;-75
2022/10/31 10:11:11;;;;;;;;;;;;;;;12.22;100.00;101905.03;4999940;28;20079;-75
2022/10/31 10:13:39;;;;;;;;;;;;;;;12.24;100.00;101902.34;4993143;28;19917;-76
2022/10/31 10:16:14;;;;;;;;;;;;;;;12.27;100.00;101902.28;4991715;28;19922;-75
2022/10/31 10:18:45;;;;;;;;;;;;;;;12.30;100.00;101894.31;4986253;28;19972;-75
2022/10/31 10:21:31;;;;;;;;;;;;;;;12.32;100.00;101889.84;4996350;28;20220;-75
2022/10/31 10:24:15;;;;;;;;;;;;;;;12.37;100.00;101877.44;4978090;28;19972;-75
2022/10/31 10:26:43;;;;;;;;;;;;;;;12.44;100.00;101878.09;4975907;28;19925;-75
2022/10/31 10:29:11;;;;;;;;;;;;;;;12.48;100.00;101870.06;4991878;28;19988;-76
2022/10/31 10:31:39;;;;;;;;;;;;;;;12.54;100.00;101868.16;4964136;28;19910;-76
2022/10/31 10:34:16;;;;;;;;;;;;;;;12.59;100.00;101869.72;4999090;28;20193;-75
2022/10/31 10:36:50;;;;;;;;;;;;;;;12.64;100.00;101862.56;4988191;28;20252;-75
2022/10/31 10:39:15;;;;;;;;;;;;;;;12.70;100.00;101858.88;4988742;28;19977;-75
2022/10/31 10:41:43;;;;;;;;;;;;;;;12.75;100.00;101859.56;4988891;28;20001;-75
2022/10/31 10:44:10;;;;;;;;;;;;;;;12.80;100.00;101862.03;4973190;28;20120;-75
2022/10/31 10:49:33;;;;;;;;;;;;;;;12.85;100.00;101853.06;4993669;28;19925;-75
2022/10/31 10:51:59;;;;;;;;;;;;;;;12.89;100.00;101847.72;4975739;28;19913;-75
2022/10/31 10:54:43;;;;;;;;;;;;;;;12.91;100.00;101843.28;4994687;28;20117;-75
2022/10/31 10:57:18;;;;;;;;;;;;;;;12.95;100.00;101850.13;4995288;28;20147;-75
2022/10/31 10:59:44;;;;;;;;;;;;;;;12.97;100.00;101849.19;4999286;28;20081;-75
2022/10/31 11:02:29;;;;;;;;;;;;;;;13.01;100.00;101835.00;4946469;28;19933;-75
2022/10/31 11:04:57;;;;;;;;;;;;;;;13.03;100.00;101841.06;4979703;28;20016;-75
2022/10/31 11:07:22;;;;;;;;;;;;;;;13.05;100.00;101836.63;4983784;28;19917;-75
2022/10/31 11:09:48;;;;;;;;;;;;;;;13.10;100.00;101840.84;4991285;28;20139;-75
2022/10/31 11:12:19;;;;;;;;;;;;;;;13.11;100.00;101830.28;4989470;28;19916;-75
2022/10/31 11:14:50;;;;;;;;;;;;;;;13.15;100.00;101842.44;4999567;28;20001;-75
2022/10/31 11:17:30;;;;;;;;;;;;;;;13.17;100.00;101835.34;4978176;28;19905;-75
2022/10/31 11:20:11;;;;;;;;;;;;;;;13.22;100.00;101830.78;4988945;28;19926;-75
2022/10/31 11:22:36;;;;;;;;;;;;;;;13.25;100.00;101822.75;4980427;28;19925;-75
2022/10/31 11:25:11;;;;;;;;;;;;;;;13.27;100.00;101814.81;4997406;28;19918;-75
2022/10/31 11:27:36;;;;;;;;;;;;;;;13.29;100.00;101823.50;4983380;28;19922;-75
2022/10/31 11:30:06;;;;;;;;;;;;;;;13.31;100.00;101826.97;4990555;28;19921;-75
2022/10/31 11:32:32;;;;;;;;;;;;;;;13.32;100.00;101812.91;4984161;28;20224;-75
2022/10/31 11:34:59;;;;;;;;;;;;;;;13.35;100.00;101814.56;4986346;28;19922;-75
2022/10/31 11:37:28;;;;;;;;;;;;;;;13.36;100.00;101813.66;4994021;28;19933;-75
2022/10/31 11:39:54;;;;;;;;;;;;;;;13.36;100.00;101803.97;4972189;28;19977;-75
2022/10/31 11:42:21;;;;;;;;;;;;;;;13.38;100.00;101793.41;4991834;28;19930;-75
2022/10/31 11:44:47;;;;;;;;;;;;;;;13.38;100.00;101789.00;4981560;28;20231;-75
2022/10/31 11:47:14;;;;;;;;;;;;;;;13.38;100.00;101780.25;4980103;28;19945;-75
2022/10/31 11:49:41;;;;;;;;;;;;;;;13.40;100.00;101776.63;4963643;28;19914;-75
2022/10/31 11:52:27;;;;;;;;;;;;;;;13.41;100.00;101783.63;4984753;28;19917;-75
2022/10/31 11:54:57;;;;;;;;;;;;;;;13.43;100.00;101778.31;4967724;28;19961;-75
2022/10/31 11:57:33;;;;;;;;;;;;;;;13.46;100.00;101786.06;4986961;28;20087;-75
2022/10/31 12:00:00;;;;;;;;;;;;;;;13.48;100.00;101784.25;4996923;28;20114;-75
2022/10/31 12:02:25;;;;;;;;;;;;;;;13.50;100.00;101769.25;4970227;28;19906;-75
2022/10/31 12:04:57;;;;;;;;;;;;;;;13.53;100.00;101763.00;4990579;28;19981;-74
2022/10/31 12:07:23;;;;;;;;;;;;;;;13.54;100.00;101757.69;4987066;28;19956;-74
2022/10/31 12:09:49;;;;;;;;;;;;;;;13.57;100.00;101736.53;4972424;28;19921;-74
2022/10/31 12:12:31;;;;;;;;;;;;;;;13.60;100.00;101732.91;4982732;28;19925;-74
2022/10/31 12:14:56;;;;;;;;;;;;;;;13.63;100.00;101717.84;4988632;28;19922;-74
2022/10/31 12:17:24;;;;;;;;;;;;;;;13.67;100.00;101710.69;4994628;28;19933;-74
2022/10/31 12:19:52;;;;;;;;;;;;;;;13.71;100.00;101707.00;5000089;28;19918;-74
2022/10/31 12:22:28;;;;;;;;;;;;;;;13.73;100.00;101705.19;4993012;28;19941;-74
2022/10/31 12:24:56;;;;;;;;;;;;;;;13.77;100.00;101700.66;5000164;28;19922;-74
2022/10/31 12:27:27;;;;;;;;;;;;;;;13.79;100.00;101696.19;5000619;28;19910;-74
2022/10/31 12:29:53;;;;;;;;;;;;;;;13.81;100.00;101683.84;4999494;28;19971;-74
2022/10/31 12:32:28;;;;;;;;;;;;;;;13.83;100.00;101676.72;4999971;28;20224;-74
2022/10/31 12:35:01;;;;;;;;;;;;;;;13.86;100.00;101665.19;5001129;28;19970;-74
2022/10/31 12:37:26;;;;;;;;;;;;;;;13.88;100.00;101651.06;5001870;28;19917;-74